Ruso, North Dakota
Current Conditions -  °F | °C
As of 9:54 AM on Wednesday 22 Oct 2014 (Local Time) from KMOT Reporting Station
Overcast Overcast  
Wind Chill: 54°   Ceiling: 10000
Heat Index: 54°   Visibility: 10mi
Dew Point: 44°   Wind: 21mph
Humidity: 69%   Direction: 240°WSW
Pressure: 29.74"   Gusts: 26mph
Location:  47.84°N, 100.93°W
Report Text: KMOT 221454Z 24018G23KT 10SM OVC100 12/07 A2974 RMK AO2 PK WND 23027/1358 SLP073 T01220067 51015
Loading
Personal Weather Stations






























Interactive Weather Map New forecast layout! Learn more

10-Day Weather Forecast

Advertisements
Track Severe Weather on mobile